createdAt,value
2024-02-06T00:02:10.563Z,100271.13
2024-02-06T00:04:40.873Z,100276.56
2024-02-06T00:07:19.967Z,100263.19
2024-02-06T00:10:04.420Z,100253.94
2024-02-06T00:12:39.300Z,100254.88
2024-02-06T00:15:20.096Z,100252.38
2024-02-06T00:17:52.076Z,100250.59
2024-02-06T00:20:38.084Z,100259.31
2024-02-06T00:23:15.574Z,100251.56
2024-02-06T00:25:49.629Z,100256.16
2024-02-06T00:28:22.762Z,100236.84
2024-02-06T00:30:55.569Z,100249.06
2024-02-06T00:33:28.088Z,100245.75
2024-02-06T00:36:00.647Z,100242.28
2024-02-06T00:38:34.269Z,100236.34
2024-02-06T00:41:04.361Z,100226.09
2024-02-06T00:43:36.802Z,100232.19
2024-02-06T00:46:18.540Z,100238.16
2024-02-06T00:48:50.435Z,100243.59
2024-02-06T00:51:20.831Z,100233.03
2024-02-06T00:54:10.373Z,100241.94
2024-02-06T00:56:40.716Z,100236.50
2024-02-06T00:59:10.976Z,100225.09
2024-02-06T01:01:49.296Z,100232.88
2024-02-06T01:04:19.829Z,100231.88
2024-02-06T01:06:53.395Z,100228.56
2024-02-06T01:09:25.272Z,100236.66
2024-02-06T01:11:56.093Z,100236.34
2024-02-06T01:14:26.341Z,100239.97
2024-02-06T01:16:59.211Z,100246.91
2024-02-06T01:19:29.399Z,100233.53
2024-02-06T01:21:59.648Z,100238.66
2024-02-06T01:24:29.848Z,100234.38
2024-02-06T01:27:01.042Z,100238.66
2024-02-06T01:29:31.204Z,100233.53
2024-02-06T01:32:04.192Z,100242.97
2024-02-06T01:34:36.820Z,100229.94
2024-02-06T01:37:07.333Z,100226.63
2024-02-06T01:39:37.380Z,100234.69
2024-02-06T01:42:08.445Z,100220.50
2024-02-06T01:44:48.249Z,100232.19
2024-02-06T01:47:21.211Z,100222.78
2024-02-06T01:49:52.185Z,100228.72
2024-02-06T01:52:23.694Z,100229.03
2024-02-06T01:54:56.817Z,100216.47
2024-02-06T01:57:32.033Z,100222.19
2024-02-06T02:00:04.357Z,100211.81
2024-02-06T02:02:48.150Z,100215.72
2024-02-06T02:05:21.053Z,100221.00
2024-02-06T02:07:54.237Z,100211.44
2024-02-06T02:10:24.420Z,100203.53
2024-02-06T02:12:56.772Z,100203.00
2024-02-06T02:15:26.999Z,100188.81
2024-02-06T02:18:02.468Z,100193.28
2024-02-06T02:20:34.174Z,100206.63
2024-02-06T02:23:19.665Z,100191.88
2024-02-06T02:25:56.083Z,100199.13
2024-02-06T02:28:26.537Z,100188.06
2024-02-06T02:31:00.937Z,100192.81
2024-02-06T02:33:34.447Z,100190.94
2024-02-06T02:36:14.099Z,100188.75
2024-02-06T02:38:48.442Z,100183.94
2024-02-06T02:41:18.811Z,100186.88
2024-02-06T02:43:49.208Z,100175.50
2024-02-06T02:46:19.295Z,100179.94
2024-02-06T02:48:49.399Z,100174.16
2024-02-06T02:51:22.481Z,100175.13
2024-02-06T02:53:56.410Z,100178.03
2024-02-06T02:56:26.742Z,100170.13
2024-02-06T02:58:56.800Z,100170.13
2024-02-06T03:01:27.025Z,100161.41
2024-02-06T03:04:02.449Z,100163.19
2024-02-06T03:06:34.037Z,100163.06
2024-02-06T03:09:07.009Z,100152.34
2024-02-06T03:11:37.391Z,100150.84
2024-02-06T03:14:07.511Z,100148.06
2024-02-06T03:16:39.116Z,100141.81
2024-02-06T03:19:09.541Z,100141.81
2024-02-06T03:21:40.015Z,100152.50
2024-02-06T03:24:15.054Z,100136.69
2024-02-06T03:26:45.894Z,100155.00
2024-02-06T03:29:16.065Z,100140.16
2024-02-06T03:31:52.387Z,100138.50
2024-02-06T03:34:22.580Z,100137.66
2024-02-06T03:36:55.907Z,100137.81
2024-02-06T03:39:30.605Z,100134.03
2024-02-06T03:42:04.251Z,100122.66
2024-02-06T03:44:34.648Z,100125.31
2024-02-06T03:47:07.693Z,100117.53
2024-02-06T03:49:42.055Z,100126.28
2024-02-06T03:52:12.128Z,100134.19
2024-02-06T03:54:48.482Z,100130.56
2024-02-06T03:57:21.504Z,100126.13
2024-02-06T03:59:58.676Z,100116.41
2024-02-06T04:02:31.352Z,100122.41
2024-02-06T04:05:01.643Z,100116.25
2024-02-06T04:07:31.871Z,100120.44
2024-02-06T04:10:09.130Z,100118.63
2024-02-06T04:12:41.882Z,100120.28
2024-02-06T04:15:21.517Z,100123.75
2024-02-06T04:17:51.674Z,100128.72
2024-02-06T04:20:24.974Z,100119.00
2024-02-06T04:22:55.027Z,100119.66
2024-02-06T04:25:27.857Z,100114.38
2024-02-06T04:27:58.401Z,100114.22
2024-02-06T04:30:28.530Z,100112.41
2024-02-06T04:33:00.676Z,100108.13
2024-02-06T04:35:31.000Z,100112.28
2024-02-06T04:38:01.263Z,100108.66
2024-02-06T04:40:34.220Z,100100.72
2024-02-06T04:43:04.293Z,100097.13
2024-02-06T04:45:35.657Z,100098.78
2024-02-06T04:48:05.923Z,100089.88
2024-02-06T04:50:36.377Z,100089.88
2024-02-06T04:53:07.348Z,100085.59
2024-02-06T04:55:40.266Z,100078.50
2024-02-06T04:58:10.781Z,100073.38
2024-02-06T05:00:40.973Z,100072.41
2024-02-06T05:03:11.441Z,100087.25
2024-02-06T05:05:41.561Z,100073.91
2024-02-06T05:08:11.803Z,100079.31
2024-02-06T05:10:45.073Z,100074.19
2024-02-06T05:13:15.296Z,100065.16
2024-02-06T05:15:45.459Z,100075.03
2024-02-06T05:18:15.714Z,100066.44
2024-02-06T05:20:45.836Z,100052.59
2024-02-06T05:23:15.994Z,100056.88
2024-02-06T05:25:49.008Z,100065.78
2024-02-06T05:28:19.223Z,100056.22
2024-02-06T05:30:49.634Z,100051.91
2024-02-06T05:33:19.812Z,100067.75
2024-02-06T05:35:49.926Z,100049.13
2024-02-06T05:38:20.219Z,100044.69
2024-02-06T05:40:53.024Z,100051.59
2024-02-06T05:43:24.117Z,100053.25
2024-02-06T05:45:54.299Z,100033.16
2024-02-06T05:48:24.394Z,100035.78
2024-02-06T05:50:54.503Z,100039.09
2024-02-06T05:53:24.533Z,100042.41
2024-02-06T05:55:57.330Z,100029.38
2024-02-06T05:58:27.836Z,100026.56
2024-02-06T06:00:58.254Z,100044.88
2024-02-06T06:03:28.440Z,100043.91
2024-02-06T06:05:58.717Z,100024.28
2024-02-06T06:08:28.991Z,100033.19
2024-02-06T06:11:01.820Z,100040.94
2024-02-06T06:13:31.875Z,100028.44
2024-02-06T06:18:46.343Z,100035.34
2024-02-06T06:21:17.314Z,100021.03
2024-02-06T06:23:47.332Z,100026.97
2024-02-06T06:26:20.248Z,100015.28
2024-02-06T06:28:50.366Z,100023.34
2024-02-06T06:31:20.491Z,100003.22
2024-02-06T06:33:50.642Z,100017.09
2024-02-06T06:36:20.759Z,100007.19
2024-02-06T06:38:50.844Z,100014.13
2024-02-06T06:41:25.756Z,100006.91
2024-02-06T06:43:55.878Z,100003.28
2024-02-06T06:46:25.949Z,100005.78
2024-02-06T06:48:56.085Z,100000.34
2024-02-06T06:51:26.596Z,99999.19
2024-02-06T06:53:56.638Z,100001.00
2024-02-06T06:56:29.460Z,100008.75
2024-02-06T06:58:59.509Z,100002.66
2024-02-06T07:01:29.729Z,100001.81
2024-02-06T07:04:00.546Z,100000.84
2024-02-06T07:06:30.635Z,100002.34
2024-02-06T07:09:00.749Z,99997.88
2024-02-06T07:11:33.387Z,99998.56
2024-02-06T07:14:03.504Z,99988.81
2024-02-06T07:16:33.690Z,99997.25
2024-02-06T07:19:03.785Z,99998.22
2024-02-06T07:21:48.774Z,100004.19
2024-02-06T07:24:18.817Z,99998.56
2024-02-06T07:26:51.592Z,99995.78
2024-02-06T07:29:22.001Z,100015.59
2024-02-06T07:31:52.409Z,99995.28
2024-02-06T07:34:22.849Z,99993.31
2024-02-06T07:36:54.804Z,100003.88
2024-02-06T07:39:25.491Z,99996.47
2024-02-06T07:41:58.697Z,100001.75
2024-02-06T07:44:28.716Z,99996.47
2024-02-06T07:46:58.815Z,99988.56
2024-02-06T07:49:29.133Z,99981.00
2024-02-06T07:51:59.569Z,99988.75
2024-02-06T07:54:29.671Z,99990.41
2024-02-06T07:57:02.487Z,99984.16
2024-02-06T07:59:32.549Z,99983.00
2024-02-06T08:02:02.713Z,99968.97
2024-02-06T08:04:32.745Z,99980.19
2024-02-06T08:07:02.999Z,99980.34
2024-02-06T08:09:34.557Z,99989.09
2024-02-06T08:12:08.074Z,99981.03
2024-02-06T08:14:38.972Z,99988.28
2024-02-06T08:17:12.314Z,99982.03
2024-02-06T08:19:42.664Z,99992.59
2024-02-06T08:22:12.885Z,99978.41
2024-02-06T08:24:43.243Z,99966.69
2024-02-06T08:27:16.005Z,99978.91
2024-02-06T08:29:46.374Z,99964.03
2024-02-06T08:32:18.414Z,99961.22
2024-02-06T08:35:03.446Z,99986.50
2024-02-06T08:37:33.773Z,99959.09
2024-02-06T08:40:08.354Z,99966.03
2024-02-06T08:42:41.915Z,99957.94
2024-02-06T08:45:14.892Z,99962.06
2024-02-06T08:47:47.543Z,99979.72
2024-02-06T08:50:22.926Z,99962.91
2024-02-06T08:52:56.057Z,99966.03
2024-02-06T08:55:28.657Z,99960.78
2024-02-06T08:58:03.673Z,99962.28
2024-02-06T09:00:34.116Z,99943.59
2024-02-06T09:03:04.292Z,99935.34
2024-02-06T09:05:34.696Z,99943.13
2024-02-06T09:08:07.161Z,99943.47
2024-02-06T09:10:37.363Z,99938.50
2024-02-06T09:13:10.127Z,99932.72
2024-02-06T09:15:40.709Z,99934.22
2024-02-06T09:18:11.107Z,99950.06
2024-02-06T09:20:41.474Z,99940.31
2024-02-06T09:23:11.692Z,99943.63
2024-02-06T09:25:44.344Z,99944.28
2024-02-06T09:28:19.168Z,99949.28
2024-02-06T09:30:49.455Z,99938.53
2024-02-06T09:33:22.805Z,99938.19
2024-02-06T09:35:55.068Z,99942.66
2024-02-06T09:38:25.055Z,99939.69
2024-02-06T09:40:56.060Z,99943.16
2024-02-06T09:43:29.116Z,99948.44
2024-02-06T09:45:59.329Z,99933.22
2024-02-06T09:48:29.534Z,99946.44
2024-02-06T09:50:59.842Z,99950.41
2024-02-06T09:53:33.137Z,99951.88
2024-02-06T09:56:04.630Z,99948.25
2024-02-06T09:58:37.533Z,99955.84
2024-02-06T10:01:11.564Z,99920.78
2024-02-06T10:03:45.372Z,99935.50
2024-02-06T10:06:20.110Z,99934.81
2024-02-06T10:08:52.164Z,99924.94
2024-02-06T10:11:24.319Z,99930.53
2024-02-06T10:13:59.014Z,99942.25
2024-02-06T10:16:29.208Z,99916.09
2024-02-06T10:19:01.355Z,99918.88
2024-02-06T10:21:32.324Z,99920.34
2024-02-06T10:24:06.286Z,99902.63
2024-02-06T10:26:36.893Z,99891.72
2024-02-06T10:29:12.792Z,99905.28
2024-02-06T10:31:43.209Z,99900.75
2024-02-06T10:34:15.915Z,99893.78
2024-02-06T10:36:46.838Z,99914.78
2024-02-06T10:39:18.424Z,99907.31
2024-02-06T10:42:09.582Z,99922.00
2024-02-06T10:44:41.377Z,99893.91
2024-02-06T10:47:11.558Z,99912.25
2024-02-06T10:49:41.837Z,99901.66
2024-02-06T10:52:17.306Z,99890.25
2024-02-06T10:54:47.477Z,99898.53
2024-02-06T10:57:24.824Z,99897.53
2024-02-06T11:00:08.929Z,99902.84
2024-02-06T11:02:40.188Z,99905.31
2024-02-06T11:05:14.344Z,99884.94
2024-02-06T11:07:51.108Z,99891.94
2024-02-06T11:10:25.477Z,99884.69
2024-02-06T11:13:02.644Z,99912.16
2024-02-06T11:15:40.999Z,99893.16
2024-02-06T11:18:15.245Z,99893.50
2024-02-06T11:20:48.789Z,99881.28
2024-02-06T11:23:21.178Z,99884.91
2024-02-06T11:25:51.918Z,99878.50
2024-02-06T11:28:22.760Z,99881.47
2024-02-06T11:31:00.875Z,99870.88
2024-02-06T11:33:36.643Z,99881.47
2024-02-06T11:36:15.405Z,99870.22
2024-02-06T11:38:46.476Z,99863.94
2024-02-06T11:41:19.172Z,99869.22
2024-02-06T11:43:52.570Z,99855.81
2024-02-06T11:46:26.643Z,99851.22
2024-02-06T11:48:56.925Z,99847.41
2024-02-06T11:51:30.165Z,99834.16
2024-02-06T11:54:00.329Z,99850.88
2024-02-06T11:56:30.403Z,99836.81
2024-02-06T11:59:00.966Z,99823.41
2024-02-06T12:01:36.975Z,99846.69
2024-02-06T12:04:08.689Z,99836.41
2024-02-06T12:06:38.935Z,99833.06
2024-02-06T12:09:10.957Z,99831.72
2024-02-06T12:11:45.596Z,99823.59
2024-02-06T12:14:16.543Z,99814.00
2024-02-06T12:16:49.949Z,99834.34
2024-02-06T12:19:20.380Z,99816.47
2024-02-06T12:21:50.484Z,99823.06
2024-02-06T12:24:22.097Z,99813.94
2024-02-06T12:26:52.548Z,99814.41
2024-02-06T12:29:23.353Z,99816.91
2024-02-06T12:31:57.176Z,99803.13
2024-02-06T12:34:28.810Z,99805.78
2024-02-06T12:37:02.650Z,99795.38
2024-02-06T12:39:38.600Z,99799.84
2024-02-06T12:42:10.376Z,99795.84
2024-02-06T12:44:49.027Z,99779.78
2024-02-06T12:47:24.077Z,99791.38
2024-02-06T12:49:57.164Z,99800.13
2024-02-06T12:52:27.514Z,99783.41
2024-02-06T12:55:00.043Z,99766.72
2024-02-06T12:57:33.356Z,99772.34
2024-02-06T13:00:04.376Z,99777.66
2024-02-06T13:02:37.249Z,99776.47
2024-02-06T13:05:14.365Z,99762.59
2024-02-06T13:07:44.778Z,99763.59
2024-02-06T13:10:17.763Z,99761.13
2024-02-06T13:12:47.924Z,99761.31
2024-02-06T13:15:21.963Z,99754.50
2024-02-06T13:17:54.701Z,99755.19
2024-02-06T13:20:25.104Z,99756.00
2024-02-06T13:22:55.431Z,99746.25
2024-02-06T13:25:27.808Z,99748.72
2024-02-06T13:27:59.044Z,99745.88
2024-02-06T13:30:29.931Z,99745.22
2024-02-06T13:33:04.029Z,99731.00
2024-02-06T13:35:34.106Z,99732.00
2024-02-06T13:38:06.987Z,99742.59
2024-02-06T13:40:38.892Z,99727.34
2024-02-06T13:43:09.115Z,99740.22
2024-02-06T13:45:39.198Z,99723.50
2024-02-06T13:48:12.157Z,99732.28
2024-02-06T13:50:42.396Z,99718.22
2024-02-06T13:53:15.134Z,99713.75
2024-02-06T13:55:45.755Z,99709.91
2024-02-06T13:58:16.062Z,99708.09
2024-02-06T14:00:46.359Z,99695.22
2024-02-06T14:03:23.239Z,99706.81
2024-02-06T14:05:54.809Z,99723.69
2024-02-06T14:08:25.022Z,99702.69
2024-02-06T14:10:56.653Z,99696.94
2024-02-06T14:13:27.842Z,99678.53
2024-02-06T14:15:58.261Z,99670.91
2024-02-06T14:18:31.355Z,99687.81
2024-02-06T14:21:01.630Z,99672.09
2024-02-06T14:23:32.470Z,99675.75
2024-02-06T14:26:05.615Z,99665.16
2024-02-06T14:28:36.104Z,99669.59
2024-02-06T14:31:06.278Z,99665.50
2024-02-06T14:33:41.478Z,99670.78
2024-02-06T14:36:14.522Z,99657.38
2024-02-06T14:38:47.432Z,99653.06
2024-02-06T14:41:17.504Z,99668.78
2024-02-06T14:43:50.187Z,99681.03
2024-02-06T14:46:20.593Z,99647.59
2024-02-06T14:48:57.691Z,99657.38
2024-02-06T14:51:28.651Z,99638.00
2024-02-06T14:54:01.048Z,99646.97
2024-02-06T14:56:31.397Z,99633.91
2024-02-06T14:59:04.823Z,99624.94
2024-02-06T15:01:35.573Z,99632.72
2024-02-06T15:04:11.688Z,99609.56
2024-02-06T15:06:42.960Z,99622.78
2024-02-06T15:09:13.419Z,99608.56
2024-02-06T15:11:44.023Z,99614.66
2024-02-06T15:14:14.560Z,99604.91
2024-02-06T15:16:45.337Z,99612.19
2024-02-06T15:19:18.454Z,99608.56
2024-02-06T15:21:52.813Z,99624.44
2024-02-06T15:24:26.075Z,99610.19
2024-02-06T15:27:04.967Z,99609.81
2024-02-06T15:29:35.082Z,99610.47
2024-02-06T15:32:07.291Z,99620.06
2024-02-06T15:34:40.322Z,99589.09
2024-02-06T15:37:11.509Z,99584.63
2024-02-06T15:39:51.486Z,99595.22
2024-02-06T15:42:22.256Z,99602.16
2024-02-06T15:44:52.382Z,99584.44
2024-02-06T15:47:22.584Z,99578.69
2024-02-06T15:49:55.467Z,99575.03
2024-02-06T15:52:25.617Z,99577.22
2024-02-06T15:54:56.275Z,99576.22
2024-02-06T15:57:26.345Z,99565.81
2024-02-06T15:59:56.600Z,99559.88
2024-02-06T16:02:32.284Z,99558.88
2024-02-06T16:05:07.171Z,99571.47
2024-02-06T16:07:40.027Z,99556.75
2024-02-06T16:10:14.121Z,99561.72
2024-02-06T16:12:50.067Z,99552.28
2024-02-06T16:15:24.300Z,99534.75
2024-02-06T16:18:06.467Z,99535.75
2024-02-06T16:20:58.438Z,99523.53
2024-02-06T16:23:28.615Z,99533.28
2024-02-06T16:25:58.714Z,99535.94
2024-02-06T16:28:28.924Z,99527.34
2024-02-06T16:30:58.991Z,99536.50
2024-02-06T16:33:29.042Z,99519.22
2024-02-06T16:36:02.885Z,99524.91
2024-02-06T16:38:33.184Z,99528.19
2024-02-06T16:41:06.431Z,99519.22
2024-02-06T16:43:39.770Z,99521.25
2024-02-06T16:46:11.813Z,99518.31
2024-02-06T16:48:41.991Z,99514.69
2024-02-06T16:51:16.400Z,99511.56
2024-02-06T16:53:46.532Z,99506.84
2024-02-06T16:56:16.926Z,99488.50
2024-02-06T16:58:47.330Z,99511.22
2024-02-06T17:01:21.110Z,99504.66
2024-02-06T17:03:53.414Z,99507.03
2024-02-06T17:06:26.477Z,99507.53
2024-02-06T17:08:57.288Z,99509.72
2024-02-06T17:11:30.093Z,99516.56
2024-02-06T17:24:46.207Z,99498.13
2024-02-06T17:27:16.390Z,99478.31
2024-02-06T17:29:48.115Z,99499.00
2024-02-06T17:32:18.380Z,99480.66
2024-02-06T17:34:51.922Z,99485.31
2024-02-06T17:37:22.221Z,99469.63
2024-02-06T17:39:54.871Z,99472.47
2024-02-06T17:42:25.061Z,99478.56
2024-02-06T17:44:55.182Z,99468.16
2024-02-06T17:47:25.483Z,99478.94
2024-02-06T17:49:55.692Z,99472.81
2024-02-06T17:52:25.888Z,99473.81
2024-02-06T17:54:58.964Z,99482.56
2024-02-06T17:57:29.103Z,99473.19
2024-02-06T17:59:59.251Z,99483.75
2024-02-06T18:02:42.371Z,99466.44
2024-02-06T18:05:19.468Z,99464.16
2024-02-06T18:07:53.537Z,99457.41
2024-02-06T18:10:26.482Z,99437.25
2024-02-06T18:12:56.683Z,99466.78
2024-02-06T18:15:26.817Z,99458.84
2024-02-06T18:17:56.955Z,99442.00
2024-02-06T18:20:27.462Z,99456.03
2024-02-06T18:22:57.673Z,99443.63
2024-02-06T18:25:31.325Z,99436.53
2024-02-06T18:28:02.481Z,99420.66
2024-02-06T18:30:32.623Z,99447.75
2024-02-06T18:33:04.808Z,99436.34
2024-02-06T18:35:35.470Z,99422.78
2024-02-06T18:38:05.994Z,99432.97
2024-02-06T18:40:39.731Z,99425.03
2024-02-06T18:43:09.859Z,99425.03
2024-02-06T18:45:41.981Z,99434.44
2024-02-06T18:48:12.194Z,99421.69
2024-02-06T18:50:43.906Z,99402.16
2024-02-06T18:53:14.264Z,99392.88
2024-02-06T18:55:48.706Z,99392.88
2024-02-06T18:58:21.143Z,99397.81
2024-02-06T19:00:51.248Z,99403.56
2024-02-06T19:03:21.474Z,99388.16
2024-02-06T19:05:57.776Z,99394.25
2024-02-06T19:08:27.989Z,99386.13
2024-02-06T19:11:00.733Z,99386.78
2024-02-06T19:17:24.602Z,99375.72
2024-02-06T19:19:55.113Z,99390.22
2024-02-06T19:22:25.235Z,99383.09
2024-02-06T19:24:55.297Z,99371.53
2024-02-06T19:27:28.246Z,99380.72
2024-02-06T19:29:58.378Z,99370.50
2024-02-06T19:32:28.475Z,99373.41
2024-02-06T19:34:59.100Z,99390.13
2024-02-06T19:37:29.549Z,99400.50
2024-02-06T19:39:59.670Z,99374.91
2024-02-06T19:42:32.414Z,99392.75
2024-02-06T19:45:02.549Z,99387.28
2024-02-06T19:47:32.778Z,99374.53
2024-02-06T19:50:05.139Z,99361.84
2024-02-06T19:52:35.449Z,99355.19
2024-02-06T19:55:05.596Z,99373.72
2024-02-06T19:57:38.830Z,99370.06
2024-02-06T20:00:11.710Z,99390.22
2024-02-06T20:02:44.139Z,99381.66
2024-02-06T20:05:14.469Z,99377.56
2024-02-06T20:07:45.101Z,99367.41
2024-02-06T20:10:16.175Z,99372.06
2024-02-06T20:12:48.967Z,99370.88
2024-02-06T20:15:19.918Z,99344.03
2024-02-06T20:17:52.496Z,99348.34
2024-02-06T20:20:23.086Z,99373.72
2024-02-06T20:22:56.348Z,99361.50
2024-02-06T20:25:26.559Z,99350.25
2024-02-06T20:27:59.301Z,99352.25
2024-02-06T20:30:29.348Z,99363.22
2024-02-06T20:32:59.503Z,99348.78
2024-02-06T20:35:29.981Z,99357.53
2024-02-06T20:38:01.130Z,99352.88
2024-02-06T20:40:31.237Z,99350.25
2024-02-06T20:43:04.100Z,99351.91
2024-02-06T20:45:34.990Z,99357.53
2024-02-06T20:48:05.618Z,99363.84
2024-02-06T20:50:36.852Z,99348.34
2024-02-06T20:53:07.954Z,99349.28
2024-02-06T20:55:39.452Z,99339.63
2024-02-06T20:58:12.127Z,99334.25
2024-02-06T21:00:42.781Z,99332.78
2024-02-06T21:03:13.608Z,99325.22
2024-02-06T21:05:46.133Z,99335.00
2024-02-06T21:08:16.420Z,99340.28
2024-02-06T21:10:46.751Z,99331.53
2024-02-06T21:13:20.554Z,99327.06
2024-02-06T21:15:50.618Z,99349.03
2024-02-06T21:18:20.775Z,99337.81
2024-02-06T21:20:51.036Z,99345.25
2024-02-06T21:23:21.125Z,99345.81
2024-02-06T21:25:51.394Z,99352.03
2024-02-06T21:28:27.097Z,99342.19
2024-02-06T21:30:57.930Z,99329.50
2024-02-06T21:33:33.317Z,99336.16
2024-02-06T21:36:04.350Z,99340.34
2024-02-06T21:38:34.750Z,99333.31
2024-02-06T21:41:08.232Z,99324.75
2024-02-06T21:43:41.813Z,99307.97
2024-02-06T21:46:13.057Z,99315.97
2024-02-06T21:48:44.247Z,99310.22
2024-02-06T21:51:14.873Z,99299.38
2024-02-06T21:53:44.886Z,99313.75
2024-02-06T21:56:21.647Z,99302.25
2024-02-06T21:58:55.415Z,99307.88
2024-02-06T22:01:25.698Z,99301.31
2024-02-06T22:03:55.781Z,99295.41
2024-02-06T22:06:26.045Z,99292.31
2024-02-06T22:08:56.159Z,99292.13
2024-02-06T22:11:31.372Z,99293.13
2024-02-06T22:14:04.087Z,99261.81
2024-02-06T22:16:34.360Z,99276.91
2024-02-06T22:19:04.578Z,99260.25
2024-02-06T22:21:35.068Z,99275.75
2024-02-06T22:24:10.437Z,99262.72
2024-02-06T22:26:40.554Z,99262.53
2024-02-06T22:29:13.244Z,99268.00
2024-02-06T22:31:46.587Z,99268.72
2024-02-06T22:34:20.247Z,99254.41
2024-02-06T22:36:50.346Z,99259.59
2024-02-06T22:39:21.084Z,99270.88
2024-02-06T22:41:52.341Z,99263.63
2024-02-06T22:44:25.081Z,99265.00
2024-02-06T22:46:55.175Z,99267.34
2024-02-06T22:49:25.395Z,99260.78
2024-02-06T22:51:55.645Z,99257.88
2024-02-06T22:54:25.784Z,99260.22
2024-02-06T22:56:55.952Z,99250.00
2024-02-06T22:59:28.777Z,99252.38
2024-02-06T23:01:59.917Z,99249.22
2024-02-06T23:04:30.099Z,99257.16
2024-02-06T23:07:00.442Z,99252.41
2024-02-06T23:09:30.686Z,99261.47
2024-02-06T23:12:00.881Z,99243.56
2024-02-06T23:14:35.694Z,99244.91
2024-02-06T23:17:07.661Z,99236.34
2024-02-06T23:19:38.072Z,99238.16
2024-02-06T23:22:08.349Z,99222.34
2024-02-06T23:24:38.497Z,99215.06
2024-02-06T23:27:08.837Z,99210.97
2024-02-06T23:29:42.281Z,99216.25
2024-02-06T23:32:13.225Z,99209.78
2024-02-06T23:34:43.743Z,99196.78
2024-02-06T23:37:13.909Z,99196.78
2024-02-06T23:39:44.692Z,99201.06
2024-02-06T23:42:14.928Z,99187.88
2024-02-06T23:44:47.609Z,99197.59
2024-02-06T23:47:17.934Z,99195.59
2024-02-06T23:49:48.385Z,99198.44
2024-02-06T23:52:20.611Z,99187.53
2024-02-06T23:54:50.691Z,99180.44
2024-02-06T23:57:20.858Z,99181.06
2024-02-06T23:59:53.686Z,99180.44
